Time;durP1;ratioP1;P1;durP2;ratioP2;P2;SDS_P1;SDS_P2;PMS_P1;PMS_P2;Temp;Humidity;BMP_temperature;BMP_pressure;BME280_temperature;BME280_humidity;BME280_pressure;Samples;Min_cycle;Max_cycle;Signal;HPM_P1;HPM_P2
2021/12/02 00:01:36;;;;;;;28.87;5.10;;;;;;;13.29;100.00;101930.88;4801270;29;20458;-92
2021/12/02 00:04:07;;;;;;;25.13;3.47;;;;;;;13.24;100.00;101916.84;4815637;29;20928;-92
2021/12/02 00:06:38;;;;;;;24.87;4.90;;;;;;;13.31;100.00;101928.78;4843566;29;20627;-92
2021/12/02 00:09:12;;;;;;;25.60;4.10;;;;;;;13.28;100.00;101929.16;4800977;29;20948;-92
2021/12/02 00:11:48;;;;;;;21.13;4.50;;;;;;;13.40;100.00;101933.19;4830488;29;20436;-92
2021/12/02 00:14:24;;;;;;;15.50;3.10;;;;;;;13.36;100.00;101926.38;4830543;29;20465;-92
2021/12/02 00:22:28;;;;;;;26.20;5.23;;;;;;;13.40;100.00;101928.56;4819811;29;20458;-92
2021/12/02 00:25:03;;;;;;;24.97;4.20;;;;;;;13.49;100.00;101921.09;4784018;29;20532;-91
2021/12/02 00:27:31;;;;;;;17.23;3.63;;;;;;;13.45;100.00;101912.41;4812353;29;20456;-91
2021/12/02 00:30:00;;;;;;;22.27;4.07;;;;;;;13.49;100.00;101913.72;4808757;29;20457;-92
2021/12/02 00:32:31;;;;;;;28.63;4.40;;;;;;;13.46;100.00;101908.63;4826683;29;20441;-93
2021/12/02 00:34:58;;;;;;;17.00;3.43;;;;;;;13.46;100.00;101894.03;4815437;29;20551;-92
2021/12/02 00:37:32;;;;;;;16.87;2.60;;;;;;;13.41;100.00;101872.59;4815360;29;20547;-92
2021/12/02 00:40:06;;;;;;;18.17;3.30;;;;;;;13.46;100.00;101874.81;4815299;29;20520;-92
2021/12/02 00:42:34;;;;;;;25.73;4.07;;;;;;;13.47;100.00;101877.34;4790476;29;20551;-92
2021/12/02 00:45:05;;;;;;;19.13;3.30;;;;;;;13.58;100.00;101888.94;4826914;29;20463;-92
2021/12/02 00:47:39;;;;;;;18.50;3.80;;;;;;;13.52;100.00;101870.44;4844764;29;20455;-92
2021/12/02 00:50:08;;;;;;;23.27;4.00;;;;;;;13.52;100.00;101875.94;4815231;29;20874;-92
2021/12/02 00:52:38;;;;;;;18.33;3.17;;;;;;;13.49;100.00;101877.16;4792773;29;20491;-91
2021/12/02 00:55:06;;;;;;;27.00;4.13;;;;;;;13.51;100.00;101864.09;4797382;29;20483;-92
2021/12/02 00:57:37;;;;;;;26.23;4.40;;;;;;;13.53;100.00;101867.50;4785105;29;20465;-91
2021/12/02 01:00:15;;;;;;;28.13;4.27;;;;;;;13.51;100.00;101863.25;4783249;29;20453;-92
2021/12/02 01:02:45;;;;;;;19.93;3.37;;;;;;;13.49;100.00;101846.94;4812855;29;20776;-92
2021/12/02 01:05:30;;;;;;;23.37;5.37;;;;;;;13.41;100.00;101844.28;4796640;29;20472;-92
2021/12/02 01:08:01;;;;;;;19.47;3.83;;;;;;;13.41;100.00;101842.41;4795612;29;20461;-91
2021/12/02 01:10:32;;;;;;;31.63;4.30;;;;;;;13.43;100.00;101844.97;4796858;29;20472;-91
2021/12/02 01:13:01;;;;;;;22.43;3.30;;;;;;;13.42;100.00;101851.50;4810562;29;20453;-91
2021/12/02 01:15:35;;;;;;;17.07;3.50;;;;;;;13.43;100.00;101850.44;4796455;29;20441;-92
2021/12/02 01:18:06;;;;;;;24.80;3.73;;;;;;;13.39;100.00;101841.72;4797281;29;20445;-92
2021/12/02 01:20:46;;;;;;;21.97;3.97;;;;;;;13.39;100.00;101847.22;4781548;29;20461;-92
2021/12/02 01:23:18;;;;;;;15.70;4.57;;;;;;;13.36;100.00;101843.97;4811793;29;20428;-92
2021/12/02 01:26:18;;;;;;;19.60;4.07;;;;;;;13.34;100.00;101851.56;4796607;29;20491;-92
2021/12/02 01:28:45;;;;;;;21.73;3.87;;;;;;;13.29;100.00;101843.84;4798466;29;20460;-92
2021/12/02 01:31:26;;;;;;;20.00;2.70;;;;;;;13.20;100.00;101827.66;4797895;29;20485;-92
2021/12/02 01:33:57;;;;;;;20.10;4.50;;;;;;;13.20;100.00;101839.50;4796689;29;20440;-91
2021/12/02 01:36:33;;;;;;;25.40;3.80;;;;;;;13.25;100.00;101842.53;4782852;29;20572;-92
2021/12/02 01:39:00;;;;;;;21.20;4.23;;;;;;;13.22;100.00;101820.94;4780908;29;20556;-91
2021/12/02 01:41:56;;;;;;;19.50;3.70;;;;;;;13.20;100.00;101824.91;4795829;29;20437;-91
2021/12/02 01:44:27;;;;;;;28.50;3.83;;;;;;;13.20;100.00;101817.53;4798169;29;20464;-92
2021/12/02 01:46:59;;;;;;;23.30;3.50;;;;;;;13.23;100.00;101821.81;4795658;29;20492;-92
2021/12/02 01:49:36;;;;;;;21.53;4.00;;;;;;;13.24;100.00;101818.88;4811260;29;20451;-92
2021/12/02 01:52:31;;;;;;;16.53;3.57;;;;;;;13.27;100.00;101820.41;4807828;29;20523;-92
2021/12/02 01:55:08;;;;;;;24.23;3.50;;;;;;;13.28;100.00;101819.34;4817943;29;20461;-92
2021/12/02 01:57:59;;;;;;;21.57;3.57;;;;;;;13.32;100.00;101815.19;4819639;29;20445;-92
2021/12/02 02:00:46;;;;;;;29.53;4.10;;;;;;;13.38;100.00;101837.28;4795790;29;20462;-92
2021/12/02 02:03:23;;;;;;;21.83;2.97;;;;;;;13.39;100.00;101824.41;4806580;29;20497;-92
2021/12/02 02:06:05;;;;;;;17.90;3.20;;;;;;;13.41;100.00;101808.59;4811282;29;21103;-92
2021/12/02 02:08:41;;;;;;;26.13;3.50;;;;;;;13.37;100.00;101810.00;4825009;29;20444;-92
2021/12/02 02:11:13;;;;;;;26.00;4.70;;;;;;;13.25;100.00;101797.75;4814689;29;20449;-92
2021/12/02 02:13:44;;;;;;;17.13;3.13;;;;;;;13.27;100.00;101802.03;4813575;29;20453;-92
2021/12/02 02:16:21;;;;;;;28.47;3.37;;;;;;;13.23;100.00;101805.34;4796467;29;20460;-92
2021/12/02 02:18:57;;;;;;;33.87;4.13;;;;;;;13.28;100.00;101808.34;4812496;29;20975;-92
2021/12/02 02:21:28;;;;;;;18.87;3.73;;;;;;;13.27;100.00;101807.53;4813550;29;20499;-92
2021/12/02 02:23:58;;;;;;;17.53;3.10;;;;;;;13.12;100.00;101790.97;4828125;29;20456;-91
2021/12/02 02:26:36;;;;;;;33.40;5.57;;;;;;;13.20;100.00;101794.72;4813536;29;20555;-92
2021/12/02 02:29:23;;;;;;;25.70;4.70;;;;;;;13.16;100.00;101787.88;4818814;29;20451;-91
2021/12/02 02:31:52;;;;;;;26.47;4.20;;;;;;;13.17;100.00;101806.91;4795804;29;20486;-91
2021/12/02 02:34:24;;;;;;;27.57;4.47;;;;;;;13.12;100.00;101792.84;4795262;29;20449;-92
2021/12/02 02:37:04;;;;;;;26.63;3.73;;;;;;;13.13;100.00;101794.56;4797280;29;20456;-92
2021/12/02 02:39:33;;;;;;;24.50;4.30;;;;;;;13.08;100.00;101781.38;4814276;29;20504;-92
2021/12/02 02:42:05;;;;;;;34.73;5.20;;;;;;;13.11;100.00;101786.50;4813398;29;20437;-92
2021/12/02 02:44:34;;;;;;;27.00;3.77;;;;;;;13.06;100.00;101778.00;4812965;29;20456;-92
2021/12/02 02:47:08;;;;;;;21.00;3.00;;;;;;;13.12;100.00;101792.84;4794601;29;20489;-92
2021/12/02 02:49:49;;;;;;;12.70;3.73;;;;;;;13.13;100.00;101789.91;4781589;29;20453;-92
2021/12/02 02:52:17;;;;;;;21.87;4.30;;;;;;;13.11;100.00;101780.16;4800323;29;20448;-90
2021/12/02 02:54:46;;;;;;;22.93;3.50;;;;;;;13.14;100.00;101779.78;4798287;29;20541;-90
2021/12/02 02:57:36;;;;;;;14.20;3.20;;;;;;;13.18;100.00;101783.06;4798198;29;20476;-90
2021/12/02 03:00:13;;;;;;;31.70;4.60;;;;;;;13.23;100.00;101766.91;4815080;29;20456;-90
2021/12/02 03:02:51;;;;;;;22.27;3.40;;;;;;;13.24;100.00;101771.34;4813987;29;20448;-90
2021/12/02 03:05:42;;;;;;;16.30;3.40;;;;;;;13.24;100.00;101757.63;4817897;29;20818;-89
2021/12/02 03:08:17;;;;;;;25.93;3.57;;;;;;;13.34;100.00;101752.69;4818841;29;20441;-89
2021/12/02 03:10:57;;;;;;;18.43;2.87;;;;;;;13.40;100.00;101754.72;4810605;29;20948;-89
2021/12/02 03:13:39;;;;;;;16.90;3.57;;;;;;;13.48;100.00;101751.84;4826254;29;20532;-90
2021/12/02 03:19:02;;;;;;;19.87;3.23;;;;;;;13.49;100.00;101735.19;4842761;29;20453;-90
2021/12/02 03:21:38;;;;;;;24.60;3.73;;;;;;;13.60;100.00;101742.13;4797898;29;20442;-92
2021/12/02 03:24:15;;;;;;;13.90;3.53;;;;;;;13.64;100.00;101739.84;4826356;29;20978;-93
2021/12/02 03:26:54;;;;;;;25.40;3.67;;;;;;;13.64;100.00;101729.72;4812223;29;20512;-92
2021/12/02 03:29:49;;;;;;;22.43;3.73;;;;;;;13.67;100.00;101729.31;4843023;29;20458;-92
2021/12/02 03:36:03;;;;;;;18.50;3.40;;;;;;;13.64;99.07;101734.38;4843580;29;20411;-91
2021/12/02 03:39:05;;;;;;;16.63;2.83;;;;;;;13.70;97.13;101736.34;4798407;29;20514;-92
2021/12/02 03:42:01;;;;;;;18.57;3.23;;;;;;;13.70;96.49;101736.34;4809390;29;20460;-92
2021/12/02 03:44:28;;;;;;;15.03;3.00;;;;;;;13.63;94.77;101739.00;4825547;29;20459;-93
2021/12/02 03:47:28;;;;;;;17.30;3.83;;;;;;;13.67;94.44;101742.19;4787929;29;20545;-93
2021/12/02 03:50:42;;;;;;;19.20;3.20;;;;;;;13.66;93.54;101744.09;4809412;29;20453;-92
2021/12/02 03:53:33;;;;;;;15.77;2.70;;;;;;;13.67;93.76;101743.06;4835688;29;20477;-92
2021/12/02 03:56:01;;;;;;;18.50;3.00;;;;;;;13.66;93.46;101735.03;4825289;29;20525;-92
2021/12/02 03:58:31;;;;;;;25.37;3.30;;;;;;;13.59;94.30;101718.44;4797922;29;20448;-92
2021/12/02 04:00:58;;;;;;;19.30;3.23;;;;;;;13.64;94.52;101709.66;4812625;29;20443;-91
2021/12/02 04:03:32;;;;;;;20.87;3.50;;;;;;;13.61;94.67;101705.38;4811834;29;20480;-92
2021/12/02 04:06:00;;;;;;;17.37;3.33;;;;;;;13.60;95.46;101713.81;4812394;29;20456;-91
2021/12/02 04:08:37;;;;;;;15.43;3.30;;;;;;;13.51;95.15;101699.31;4809032;29;20460;-92
2021/12/02 04:11:16;;;;;;;24.80;3.27;;;;;;;13.54;95.56;101714.56;4824473;29;20853;-92
2021/12/02 04:14:32;;;;;;;20.30;4.00;;;;;;;13.51;95.98;101696.56;4827920;29;20543;-93
2021/12/02 04:17:29;;;;;;;22.10;3.10;;;;;;;13.51;95.96;101699.31;4841397;29;21032;-91
2021/12/02 04:20:18;;;;;;;22.13;3.43;;;;;;;13.48;95.91;101696.94;4828013;29;20616;-93
2021/12/02 04:22:56;;;;;;;25.63;3.30;;;;;;;13.50;96.28;101703.09;4811946;29;20555;-92
2021/12/02 04:25:24;;;;;;;17.93;4.43;;;;;;;13.51;96.15;101699.31;4823706;29;20457;-92
2021/12/02 04:28:05;;;;;;;12.43;2.93;;;;;;;13.52;96.13;101683.69;4822484;29;20895;-92
2021/12/02 04:30:38;;;;;;;17.63;4.53;;;;;;;13.58;96.50;101693.91;4795429;29;20498;-92
2021/12/02 04:33:07;;;;;;;17.07;3.17;;;;;;;13.57;96.29;101704.03;4827705;29;20452;-92
2021/12/02 04:35:59;;;;;;;15.90;2.90;;;;;;;13.62;96.96;101698.00;4812243;29;20436;-93
2021/12/02 04:38:39;;;;;;;14.93;2.37;;;;;;;13.59;97.39;101707.47;4823840;29;20456;-94
2021/12/02 04:41:30;;;;;;;18.00;2.57;;;;;;;13.74;97.62;101727.53;4824045;29;20429;-93
2021/12/02 04:44:31;;;;;;;23.10;3.10;;;;;;;13.75;98.49;101722.88;4821993;29;20492;-93
2021/12/02 04:46:59;;;;;;;17.13;2.90;;;;;;;13.68;98.84;101717.28;4833975;29;20873;-92
2021/12/02 04:49:43;;;;;;;19.67;2.53;;;;;;;13.63;98.82;101714.28;4811863;29;20467;-93
2021/12/02 04:52:28;;;;;;;17.67;3.27;;;;;;;13.52;99.72;101695.50;4829573;29;20463;-94
2021/12/02 04:55:04;;;;;;;14.20;3.00;;;;;;;13.51;99.91;101693.81;4830355;29;20425;-92
2021/12/02 05:01:25;;;;;;;15.43;2.60;;;;;;;13.42;100.00;101667.50;4845944;29;20469;-93
2021/12/02 05:03:53;;;;;;;9.97;2.23;;;;;;;13.43;100.00;101666.47;4829303;29;20460;-92
2021/12/02 05:06:21;;;;;;;12.63;2.50;;;;;;;13.42;100.00;101642.78;4814930;29;20460;-94
2021/12/02 05:08:53;;;;;;;25.03;3.40;;;;;;;13.46;100.00;101657.84;4796501;29;20541;-93
2021/12/02 05:11:48;;;;;;;21.40;3.00;;;;;;;13.46;100.00;101658.69;4814153;29;20517;-94
2021/12/02 05:14:22;;;;;;;17.70;3.30;;;;;;;13.50;100.00;101678.38;4835605;29;20525;-92
2021/12/02 05:20:31;;;;;;;13.07;1.90;;;;;;;13.47;100.00;101673.25;4845747;29;20466;-94
2021/12/02 05:23:06;;;;;;;27.17;3.30;;;;;;;13.44;100.00;101660.78;4788973;29;20510;-95
2021/12/02 05:26:05;;;;;;;18.40;2.73;;;;;;;13.41;100.00;101654.81;4811479;29;20480;-93
2021/12/02 05:28:59;;;;;;;12.70;2.07;;;;;;;13.33;100.00;101636.53;4825961;29;20484;-93
2021/12/02 05:31:49;;;;;;;11.57;2.30;;;;;;;13.27;100.00;101633.72;4844623;29;20555;-93
2021/12/02 05:37:58;;;;;;;19.93;3.00;;;;;;;13.12;100.00;101629.03;4827387;29;20474;-92
2021/12/02 05:40:44;;;;;;;12.10;2.23;;;;;;;13.09;100.00;101634.88;4796412;29;20528;-93
2021/12/02 05:43:40;;;;;;;11.27;1.70;;;;;;;13.05;100.00;101633.56;4819415;29;20485;-92
2021/12/02 05:46:09;;;;;;;10.77;2.23;;;;;;;13.02;100.00;101633.09;4841196;29;20510;-94
2021/12/02 05:49:17;;;;;;;24.27;3.37;;;;;;;13.04;100.00;101626.38;4825521;29;20493;-93
2021/12/02 05:51:51;;;;;;;13.40;2.70;;;;;;;13.05;100.00;101622.59;4830604;29;20459;-92
2021/12/02 05:54:20;;;;;;;8.53;1.97;;;;;;;13.04;100.00;101636.50;4813959;29;20539;-93
2021/12/02 05:56:48;;;;;;;12.77;2.10;;;;;;;13.03;100.00;101643.88;4811494;29;20480;-92
2021/12/02 05:59:24;;;;;;;23.80;3.53;;;;;;;13.06;100.00;101662.72;4795943;29;20464;-92
2021/12/02 06:01:58;;;;;;;22.00;2.87;;;;;;;13.10;100.00;101664.03;4796071;29;20555;-93
2021/12/02 06:04:42;;;;;;;14.23;2.80;;;;;;;13.00;100.00;101652.50;4796246;29;20430;-94
2021/12/02 06:07:13;;;;;;;12.57;2.77;;;;;;;13.00;100.00;101651.63;4782636;29;20576;-93
2021/12/02 06:10:05;;;;;;;19.90;3.87;;;;;;;12.96;100.00;101656.63;4825185;29;20469;-93
2021/12/02 06:12:50;;;;;;;14.30;2.97;;;;;;;12.95;100.00;101646.69;4826177;29;20541;-93
2021/12/02 06:15:27;;;;;;;25.77;3.23;;;;;;;13.01;100.00;101648.72;4843663;29;20483;-93
2021/12/02 06:18:13;;;;;;;15.23;2.57;;;;;;;13.03;100.00;101638.41;4825082;29;20503;-93
2021/12/02 06:20:54;;;;;;;22.43;3.50;;;;;;;13.04;100.00;101631.88;4825883;29;20440;-92
2021/12/02 06:23:36;;;;;;;18.00;2.30;;;;;;;13.02;100.00;101619.38;4838489;29;20463;-92
2021/12/02 06:26:13;;;;;;;24.10;3.20;;;;;;;13.03;100.00;101624.69;4828737;29;20433;-92
2021/12/02 06:28:48;;;;;;;16.63;3.27;;;;;;;12.99;100.00;101612.38;4826599;29;21079;-92
2021/12/02 06:31:19;;;;;;;14.17;2.67;;;;;;;13.04;100.00;101615.41;4814022;29;20982;-92
2021/12/02 06:34:18;;;;;;;26.87;5.10;;;;;;;13.05;100.00;101624.50;4814886;29;20476;-92
2021/12/02 06:37:14;;;;;;;25.73;2.93;;;;;;;13.05;100.00;101617.13;4841479;29;20487;-93
2021/12/02 06:40:01;;;;;;;15.33;2.37;;;;;;;13.05;100.00;101622.59;4825232;29;20473;-92
2021/12/02 06:42:51;;;;;;;21.47;2.93;;;;;;;13.05;100.00;101619.00;4825657;29;20955;-93
2021/12/02 06:45:23;;;;;;;26.63;2.93;;;;;;;13.04;100.00;101604.44;4826601;29;20458;-93
2021/12/02 06:47:59;;;;;;;35.50;3.97;;;;;;;13.04;100.00;101598.09;4828309;29;21073;-92
2021/12/02 06:50:40;;;;;;;14.63;2.30;;;;;;;13.02;100.00;101606.50;4829227;29;20425;-93
2021/12/02 06:53:16;;;;;;;27.13;3.70;;;;;;;12.99;100.00;101600.53;4842377;29;20480;-93
2021/12/02 06:55:45;;;;;;;14.43;2.83;;;;;;;12.97;100.00;101584.25;4799160;29;20886;-93
2021/12/02 07:02:19;;;;;;;23.20;3.20;;;;;;;13.00;100.00;101622.31;4827507;29;20468;-94
2021/12/02 07:04:58;;;;;;;28.53;3.50;;;;;;;13.06;100.00;101635.28;4812974;29;20889;-93
2021/12/02 07:11:08;;;;;;;18.80;3.90;;;;;;;13.04;100.00;101637.34;4843335;29;20926;-94
2021/12/02 07:14:16;;;;;;;23.30;3.87;;;;;;;13.07;100.00;101637.00;4797102;29;20551;-93
2021/12/02 07:16:47;;;;;;;33.27;3.90;;;;;;;13.04;100.00;101626.38;4825137;29;20453;-93
2021/12/02 07:19:29;;;;;;;19.57;3.40;;;;;;;13.11;100.00;101643.78;4824828;29;20440;-92
2021/12/02 07:22:16;;;;;;;24.20;2.80;;;;;;;13.19;100.00;101684.06;4825803;29;20467;-91
2021/12/02 07:24:52;;;;;;;28.27;3.60;;;;;;;13.16;100.00;101664.38;4824798;29;20449;-91
2021/12/02 07:27:33;;;;;;;21.70;2.80;;;;;;;13.07;100.00;101658.94;4824402;29;20900;-93
2021/12/02 07:30:07;;;;;;;12.60;1.70;;;;;;;13.02;100.00;101653.16;4824921;29;21006;-93
2021/12/02 07:32:58;;;;;;;12.60;2.40;;;;;;;13.02;100.00;101658.66;4812604;29;20456;-93
2021/12/02 07:35:27;;;;;;;18.83;4.70;;;;;;;12.92;100.00;101660.78;4827608;29;20449;-92
2021/12/02 07:38:03;;;;;;;13.17;3.27;;;;;;;12.84;100.00;101671.88;4809068;29;20941;-93
2021/12/02 07:40:37;;;;;;;19.00;1.80;;;;;;;12.80;100.00;101670.53;4824517;29;20475;-92
2021/12/02 07:43:07;;;;;;;13.83;2.43;;;;;;;12.80;100.00;101662.28;4816833;29;20463;-92
2021/12/02 07:45:37;;;;;;;10.13;2.10;;;;;;;12.77;100.00;101660.78;4809316;29;20479;-93
2021/12/02 07:48:22;;;;;;;12.70;1.87;;;;;;;12.77;100.00;101671.75;4779540;29;20485;-92
2021/12/02 07:51:27;;;;;;;8.57;1.50;;;;;;;12.75;100.00;101695.75;4794520;29;20460;-92
2021/12/02 07:57:19;;;;;;;8.57;1.40;;;;;;;12.73;100.00;101678.63;4824458;29;20572;-93
2021/12/02 08:00:05;;;;;;;9.17;2.10;;;;;;;12.71;100.00;101672.47;4790369;29;20455;-94
2021/12/02 08:06:15;;;;;;;11.27;1.63;;;;;;;12.83;100.00;101685.75;4847491;29;20427;-92
2021/12/02 08:09:21;;;;;;;6.07;1.90;;;;;;;12.95;100.00;101687.00;4812544;29;20564;-93
2021/12/02 08:12:26;;;;;;;5.77;1.33;;;;;;;12.98;100.00;101700.38;4823893;29;21017;-93
2021/12/02 08:18:35;;;;;;;9.40;2.00;;;;;;;13.05;100.00;101720.53;4864515;29;20506;-93
2021/12/02 08:21:03;;;;;;;14.70;1.67;;;;;;;13.00;100.00;101712.88;4830768;29;20456;-93
2021/12/02 08:23:33;;;;;;;14.90;2.07;;;;;;;12.96;100.00;101717.00;4805079;29;20459;-92
2021/12/02 08:29:48;;;;;;;11.47;1.93;;;;;;;12.93;100.00;101711.88;4846438;29;20462;-93
2021/12/02 08:32:15;;;;;;;15.10;2.10;;;;;;;12.98;100.00;101723.16;4800787;29;20452;-93
2021/12/02 08:34:44;;;;;;;8.13;1.80;;;;;;;12.91;100.00;101718.59;4815538;29;20456;-93
2021/12/02 08:41:11;;;;;;;7.00;1.33;;;;;;;12.96;100.00;101727.13;4827904;29;20409;-93
2021/12/02 08:46:57;;;;;;;4.33;1.27;;;;;;;13.07;100.00;101746.78;4835904;29;20532;-92
2021/12/02 08:49:45;;;;;;;11.53;1.90;;;;;;;13.17;100.00;101742.94;4801344;29;20462;-95
2021/12/02 08:52:16;;;;;;;4.90;0.93;;;;;;;13.24;100.00;101733.78;4808440;29;20887;-94
2021/12/02 08:58:35;;;;;;;4.20;1.17;;;;;;;13.29;100.00;101712.06;4845412;29;20505;-94
2021/12/02 09:05:40;;;;;;;4.00;0.87;;;;;;;13.45;100.00;101761.34;4864466;29;20937;-94
2021/12/02 09:31:05;;;;;;;4.17;1.10;;;;;;;13.12;100.00;101726.97;4828193;29;20393;-88
2021/12/02 09:34:11;;;;;;;3.70;0.50;;;;;;;13.21;100.00;101736.03;4811162;29;20948;-92
2021/12/02 09:40:10;;;;;;;9.30;1.60;;;;;;;13.25;100.00;101723.63;4834221;29;20444;-91
2021/12/02 09:42:39;;;;;;;7.60;1.63;;;;;;;13.45;100.00;101733.03;4811789;29;20548;-93
2021/12/02 09:45:16;;;;;;;7.23;1.30;;;;;;;13.56;100.00;101729.81;4811107;29;20968;-93
2021/12/02 09:47:47;;;;;;;7.13;1.00;;;;;;;13.52;100.00;101722.13;4827720;29;20488;-88
2021/12/02 09:54:14;;;;;;;5.17;0.80;;;;;;;13.77;100.00;101742.78;4850141;29;20435;-88
2021/12/02 09:56:45;;;;;;;8.67;1.00;;;;;;;13.82;100.00;101732.09;4832717;29;20458;-88
2021/12/02 09:59:52;;;;;;;6.53;1.20;;;;;;;13.97;100.00;101754.03;4815788;29;20505;-88
2021/12/02 10:02:15;;;;;;;7.23;2.63;;;;;;;14.03;100.00;101745.03;4842341;29;20452;-88
2021/12/02 10:04:53;;;;;;;10.30;1.73;;;;;;;14.20;100.00;101746.53;4843974;29;20831;-89
2021/12/02 10:07:29;;;;;;;8.13;1.43;;;;;;;14.21;100.00;101761.13;4810670;29;20451;-87
2021/12/02 10:10:56;;;;;;;5.23;1.30;;;;;;;14.27;100.00;101771.31;4823866;29;20443;-91
2021/12/02 10:13:32;;;;;;;6.63;1.53;;;;;;;14.35;100.00;101762.97;4820336;29;20959;-88
2021/12/02 10:16:38;;;;;;;6.23;0.90;;;;;;;14.50;100.00;101778.41;4825465;29;20461;-88
2021/12/02 10:19:13;;;;;;;5.60;0.93;;;;;;;14.61;99.62;101789.97;4828153;29;20437;-89
2021/12/02 10:21:48;;;;;;;3.73;1.13;;;;;;;14.57;98.36;101784.00;4830915;29;20455;-89
2021/12/02 10:24:24;;;;;;;6.00;1.67;;;;;;;14.70;97.62;101805.31;4828321;29;20561;-89
2021/12/02 10:26:55;;;;;;;6.33;0.97;;;;;;;14.76;96.63;101801.78;4827724;29;20474;-88
2021/12/02 10:29:46;;;;;;;5.43;1.27;;;;;;;14.78;93.18;101814.31;4830067;29;20436;-89
2021/12/02 10:32:25;;;;;;;4.97;1.20;;;;;;;14.71;91.61;101813.38;4802840;29;20468;-88
2021/12/02 10:34:55;;;;;;;7.83;1.20;;;;;;;14.69;92.02;101812.72;4809087;29;20953;-89
2021/12/02 10:37:31;;;;;;;5.73;1.43;;;;;;;14.79;91.82;101831.66;4794633;29;20429;-89
2021/12/02 10:40:13;;;;;;;6.57;1.50;;;;;;;14.83;90.87;101821.94;4808957;29;20461;-89
2021/12/02 10:42:43;;;;;;;6.90;2.70;;;;;;;14.90;86.47;101813.78;4808755;29;20445;-89
2021/12/02 10:45:21;;;;;;;8.10;1.07;;;;;;;14.91;86.09;101830.09;4826016;29;20448;-89
2021/12/02 10:47:49;;;;;;;8.60;1.10;;;;;;;14.77;84.87;101839.25;4812238;29;20559;-90
2021/12/02 10:50:17;;;;;;;4.47;0.97;;;;;;;14.76;84.27;101815.53;4812462;29;20450;-90
2021/12/02 10:52:46;;;;;;;8.90;1.47;;;;;;;14.74;85.28;101814.88;4812623;29;20491;-90
2021/12/02 10:55:22;;;;;;;14.47;1.50;;;;;;;14.76;86.24;101807.28;4812646;29;20456;-90
2021/12/02 10:57:57;;;;;;;3.97;1.30;;;;;;;14.89;85.02;101810.16;4811882;29;20488;-90
2021/12/02 11:00:35;;;;;;;4.07;0.90;;;;;;;14.99;86.17;101821.72;4824407;29;20544;-90
2021/12/02 11:03:14;;;;;;;3.37;0.97;;;;;;;14.99;85.12;101809.84;4825683;29;20459;-90
2021/12/02 11:05:47;;;;;;;10.53;1.30;;;;;;;15.10;84.65;101825.84;4812193;29;20996;-90
2021/12/02 11:08:16;;;;;;;4.20;1.20;;;;;;;15.11;85.30;101814.63;4837496;29;20463;-90
2021/12/02 11:10:53;;;;;;;7.60;1.47;;;;;;;15.21;84.71;101826.16;4830564;29;20435;-89
2021/12/02 11:13:26;;;;;;;9.73;1.87;;;;;;;15.26;83.47;101831.06;4860583;29;20456;-90
2021/12/02 11:15:58;;;;;;;6.10;1.20;;;;;;;15.35;81.78;101829.88;4831237;29;20420;-89
2021/12/02 11:18:38;;;;;;;7.90;1.20;;;;;;;15.55;82.71;101813.53;4816203;29;20464;-93
2021/12/02 11:21:12;;;;;;;6.07;1.03;;;;;;;15.62;81.58;101825.47;4804794;29;20965;-93
2021/12/02 11:23:52;;;;;;;8.23;1.90;;;;;;;15.75;80.31;101828.34;4795514;29;20453;-92
2021/12/02 11:26:21;;;;;;;10.57;1.50;;;;;;;15.73;79.93;101826.81;4812409;29;20459;-93
2021/12/02 11:28:55;;;;;;;7.53;1.47;;;;;;;15.74;80.58;101828.53;4797640;29;20508;-94
2021/12/02 11:31:32;;;;;;;11.53;1.50;;;;;;;15.67;78.10;101819.34;4813026;29;20521;-92
2021/12/02 11:34:00;;;;;;;9.57;1.30;;;;;;;15.60;77.82;101823.94;4827625;29;20463;-92
2021/12/02 11:36:39;;;;;;;11.77;1.60;;;;;;;15.49;76.52;101806.06;4797708;29;20448;-94
2021/12/02 11:39:09;;;;;;;11.40;1.60;;;;;;;15.34;75.84;101803.41;4797895;29;20432;-93
2021/12/02 11:41:37;;;;;;;6.20;1.17;;;;;;;15.27;76.20;101787.84;4812772;29;20452;-92
2021/12/02 11:44:12;;;;;;;5.70;1.40;;;;;;;15.40;76.97;101776.94;4813024;29;20437;-93
2021/12/02 11:46:41;;;;;;;6.20;0.87;;;;;;;15.35;75.32;101766.53;4812529;29;20452;-93
2021/12/02 11:49:11;;;;;;;10.63;1.50;;;;;;;15.23;74.81;101761.75;4812124;29;20481;-94
2021/12/02 11:51:40;;;;;;;4.00;0.90;;;;;;;15.30;75.80;101759.91;4813268;29;20448;-92
2021/12/02 11:54:09;;;;;;;7.60;1.53;;;;;;;15.36;76.35;101765.47;4801705;29;20428;-92
2021/12/02 11:57:30;;;;;;;3.93;0.90;;;;;;;15.50;74.24;101761.75;4816089;29;20845;-92
2021/12/02 11:59:58;;;;;;;6.63;1.43;;;;;;;15.57;74.61;101764.59;4829309;29;20524;-91
2021/12/02 12:02:36;;;;;;;11.97;1.60;;;;;;;15.66;74.27;101751.50;4799105;29;20426;-92
2021/12/02 12:05:06;;;;;;;6.07;1.20;;;;;;;15.59;72.98;101740.44;4812528;29;20522;-94
2021/12/02 12:07:48;;;;;;;10.43;1.50;;;;;;;15.64;73.29;101743.44;4783266;29;20449;-92
2021/12/02 12:10:26;;;;;;;6.70;1.47;;;;;;;15.74;73.70;101741.19;4783322;29;20506;-92
2021/12/02 12:13:16;;;;;;;5.50;1.83;;;;;;;15.83;73.21;101739.94;4798322;29;20893;-92
2021/12/02 12:16:00;;;;;;;10.23;1.60;;;;;;;15.78;72.54;101727.81;4827755;29;20461;-92
2021/12/02 12:18:39;;;;;;;7.57;1.30;;;;;;;15.83;71.72;101731.66;4783804;29;20437;-92
2021/12/02 12:21:13;;;;;;;3.87;1.70;;;;;;;15.75;72.79;101726.34;4813028;29;20821;-92
2021/12/02 12:23:58;;;;;;;8.00;1.27;;;;;;;15.81;72.71;101728.25;4797543;29;20486;-92
2021/12/02 12:26:52;;;;;;;9.63;1.57;;;;;;;15.88;74.31;101722.78;4813926;29;20912;-92
2021/12/02 12:29:35;;;;;;;8.13;1.60;;;;;;;16.00;73.97;101731.31;4826953;29;20484;-93
2021/12/02 12:32:26;;;;;;;12.23;1.67;;;;;;;16.01;73.19;101727.50;4812270;29;20864;-92
2021/12/02 12:35:03;;;;;;;10.33;1.30;;;;;;;16.06;72.83;101719.47;4784668;29;20465;-92
2021/12/02 12:40:37;;;;;;;6.60;3.00;;;;;;;16.15;71.59;101719.09;4813046;29;20547;-92
2021/12/02 12:43:04;;;;;;;7.70;1.43;;;;;;;16.24;71.08;101723.38;4811964;29;20452;-92
2021/12/02 12:46:17;;;;;;;3.00;1.17;;;;;;;15.96;67.38;101732.81;4827367;29;20425;-92
2021/12/02 12:48:46;;;;;;;9.17;1.57;;;;;;;15.99;67.80;101735.13;4808993;29;20485;-92
2021/12/02 12:51:28;;;;;;;7.43;1.17;;;;;;;16.11;66.72;101725.22;4797416;29;20461;-93
2021/12/02 12:54:02;;;;;;;8.77;1.33;;;;;;;16.19;67.41;101708.47;4797934;29;20445;-92
2021/12/02 12:56:39;;;;;;;4.93;1.00;;;;;;;16.27;66.98;101705.56;4797605;29;20509;-92
2021/12/02 12:59:13;;;;;;;9.20;1.27;;;;;;;16.29;66.04;101697.91;4811871;29;20476;-93
2021/12/02 13:02:03;;;;;;;8.50;1.33;;;;;;;16.43;65.96;101696.88;4800140;29;20462;-93
2021/12/02 13:05:00;;;;;;;26.17;3.90;;;;;;;16.54;65.60;101693.53;4829074;29;20455;-92
2021/12/02 13:07:41;;;;;;;7.33;1.37;;;;;;;16.43;63.93;101705.16;4806767;29;20468;-93
2021/12/02 13:10:23;;;;;;;5.00;1.47;;;;;;;16.44;64.52;101708.78;4783793;29;20499;-92
2021/12/02 13:12:58;;;;;;;6.73;1.50;;;;;;;16.33;63.94;101698.34;4812827;29;20465;-92
2021/12/02 13:15:27;;;;;;;5.63;1.23;;;;;;;16.28;65.39;101700.88;4797993;29;20521;-93
2021/12/02 13:17:59;;;;;;;4.60;1.33;;;;;;;16.22;65.43;101697.03;4797128;29;20956;-92
2021/12/02 13:20:50;;;;;;;10.07;1.70;;;;;;;16.25;65.78;101715.94;4797231;29;20434;-93
2021/12/02 13:23:25;;;;;;;9.57;1.30;;;;;;;16.35;65.09;101718.31;4811520;29;20524;-92
2021/12/02 13:26:15;;;;;;;11.07;1.97;;;;;;;16.47;62.88;101717.50;4811112;29;20464;-92
2021/12/02 13:29:05;;;;;;;5.80;1.33;;;;;;;16.45;62.64;101708.56;4811321;29;20492;-92
2021/12/02 13:31:34;;;;;;;9.10;1.40;;;;;;;16.40;63.54;101700.06;4811586;29;20434;-93
2021/12/02 13:34:14;;;;;;;11.73;1.30;;;;;;;16.37;62.14;101708.75;4781886;29;20465;-93
2021/12/02 13:36:58;;;;;;;9.33;1.53;;;;;;;16.24;61.67;101695.78;4811347;29;20469;-92
2021/12/02 13:39:34;;;;;;;3.30;1.10;;;;;;;16.35;61.27;101697.09;4798087;29;20445;-92